HIDDEN DAM (HENSLEY) (HID)

Elevation: 561' · FRESNO R basin · Operator: US Army Corps of Engineers

Provisional data, subject to change.
Query executed Saturday at 9:50:04   clock

Select a sensor type for a plot of data.
Note: Reservoir Flows are daily averages.

Earlier

Date RES ELE    STORAGE    RES CHG    TOC STO    ABV TOC    OUTFLOW    INFLOW    PPT INC    TEMP MN    TEMP MX    WINDLEN    EVP PAN   
 FEET   AF   AF   AF   AF   CFS   CFS   INCHES   DEG F   DEG F   MILES   INCHES  
07/01/2016 497.68 35745 -329 -- -- 164 11 0.02 22 41 118 0.40
07/02/2016 497.34 35408 -337 -- -- 161 3 0.00 21 39 111 0.38
07/03/2016 497.01 35082 -326 -- -- 156 4 0.00 19 38 119 0.38
07/04/2016 496.68 34758 -324 -- -- 156 4 0.00 17 37 111 0.37
07/05/2016 496.36 34445 -313 -- -- 156 10 0.00 19 36 111 0.37
07/06/2016 495.98 34076 -369 -- -- 154 -20 0.00 16 35 116 0.36
07/07/2016 495.68 33786 -290 -- -- 154 18 0.00 16 35 95 0.33
07/08/2016 495.33 33449 -337 90000 -- 158 -1 0.03 18 35 111 0.35
07/09/2016 494.97 33105 -344 90000 -- 166 3 0.00 18 35 136 0.36
07/10/2016 494.61 32763 -342 90000 -- 161 -0 0.00 14 31 150 0.36
07/11/2016 494.26 32432 -331 90000 -- 156 -0 0.00 15 34 110 0.34
07/12/2016 493.91 32103 -329 90000 -57897 156 2 0.00 17 36 132 0.38
07/13/2016 493.56 31776 -327 90000 -58224 156 2 0.01 18 37 115 0.37
07/14/2016 493.22 31460 -316 90000 -58540 156 8 0.02 21 40 116 0.40
07/15/2016 492.86 31127 -333 90000 -58873 156 -0 0.00 23 40 119 0.40
07/16/2016 492.51 30806 -321 90000 -59194 155 5 0.00 20 38 119 0.38
07/17/2016 492.16 30486 -320 90000 -59514 155 4 0.00 19 37 108 0.36
07/18/2016 491.80 30159 -327 90000 -59841 154 -1 0.00 15 35 96 0.34
07/19/2016 491.44 29835 -324 90000 -60165 154 1 0.00 17 35 103 0.34
07/20/2016 491.08 29512 -323 90000 -60488 154 1 0.00 16 36 97 0.34
07/21/2016 490.72 29191 -321 90000 -60809 154 2 0.00 19 37 103 0.36
07/22/2016 490.36 28873 -- 90000 -61127 154 4 0.00 16 38 111 0.37
07/23/2016 489.99 28547 -326 90000 -61453 154 0 0.00 19 38 121 0.38
07/24/2016 489.63 28232 -- 90000 -61768 154 6 0.00 22 41 126 0.40
07/25/2016 489.26 27911 -321 90000 -62089 154 3 0.00 22 40 100 0.37
07/26/2016 488.89 27592 -319 90000 -62408 155 5 0.00 23 42 114 0.39
07/27/2016 488.52 27275 -317 90000 -62725 152 4 0.00 24 43 129 0.40
07/28/2016 488.18 26986 -289 90000 -63014 143 7 0.02 23 42 106 0.37
07/29/2016 487.84 26698 -288 90000 -63302 136 1 0.01 25 43 120 0.39
07/30/2016 -- -- -- -- -- -- -- -- -- -- -- --

Later | Latest

Warning! This data is preliminary and subject to revision.

Show HID Map | Plot HID Data | 1 Month HID Data | Real-Time HID Data | HID Info